sensor_id;sensor_type;location;lat;lon;timestamp;pressure;altitude;pressure_sealevel;temperature;humidity
23899;BME280;20544;50.018;20.010;2022-12-07T00:00:15;98353.98;;;2.50;100.00
23899;BME280;20544;50.018;20.010;2022-12-07T00:03:35;98352.75;;;2.54;100.00
23899;BME280;20544;50.018;20.010;2022-12-07T00:06:54;98349.02;;;2.57;100.00
23899;BME280;20544;50.018;20.010;2022-12-07T00:10:11;98346.95;;;2.61;100.00
23899;BME280;20544;50.018;20.010;2022-12-07T00:13:27;98348.02;;;2.68;100.00
23899;BME280;20544;50.018;20.010;2022-12-07T00:16:44;98345.95;;;2.62;100.00
23899;BME280;20544;50.018;20.010;2022-12-07T00:20:02;98345.30;;;2.59;100.00
23899;BME280;20544;50.018;20.010;2022-12-07T00:23:20;98350.23;;;2.63;100.00
23899;BME280;20544;50.018;20.010;2022-12-07T00:26:40;98343.78;;;2.57;100.00
23899;BME280;20544;50.018;20.010;2022-12-07T00:29:57;98343.39;;;2.52;100.00
23899;BME280;20544;50.018;20.010;2022-12-07T00:33:13;98342.83;;;2.58;100.00
23899;BME280;20544;50.018;20.010;2022-12-07T00:36:29;98342.83;;;2.58;100.00
23899;BME280;20544;50.018;20.010;2022-12-07T00:39:46;98350.38;;;2.61;100.00
23899;BME280;20544;50.018;20.010;2022-12-07T00:43:03;98345.30;;;2.59;100.00
23899;BME280;20544;50.018;20.010;2022-12-07T00:46:20;98345.30;;;2.59;100.00
23899;BME280;20544;50.018;20.010;2022-12-07T00:49:36;98349.98;;;2.56;100.00
23899;BME280;20544;50.018;20.010;2022-12-07T00:52:52;98343.64;;;2.58;100.00
23899;BME280;20544;50.018;20.010;2022-12-07T00:56:11;98340.33;;;2.56;100.00
23899;BME280;20544;50.018;20.010;2022-12-07T00:59:29;98342.53;;;2.61;100.00
23899;BME280;20544;50.018;20.010;2022-12-07T01:02:45;98334.52;;;2.63;100.00
23899;BME280;20544;50.018;20.010;2022-12-07T01:06:02;98331.66;;;2.56;100.00
23899;BME280;20544;50.018;20.010;2022-12-07T01:09:19;98333.43;;;2.55;100.00
23899;BME280;20544;50.018;20.010;2022-12-07T01:12:38;98331.50;;;2.57;100.00
23899;BME280;20544;50.018;20.010;2022-12-07T01:15:57;98325.72;;;2.54;100.00
23899;BME280;20544;50.018;20.010;2022-12-07T01:19:16;98326.98;;;2.50;100.00
23899;BME280;20544;50.018;20.010;2022-12-07T01:22:32;98327.95;;;2.49;100.00
23899;BME280;20544;50.018;20.010;2022-12-07T01:25:57;98323.11;;;2.54;100.00
23899;BME280;20544;50.018;20.010;2022-12-07T01:29:14;98326.14;;;2.49;100.00
23899;BME280;20544;50.018;20.010;2022-12-07T01:32:31;98321.61;;;2.41;100.00
23899;BME280;20544;50.018;20.010;2022-12-07T01:35:47;98318.88;;;2.43;100.00
23899;BME280;20544;50.018;20.010;2022-12-07T01:39:06;98312.80;;;2.42;100.00
23899;BME280;20544;50.018;20.010;2022-12-07T01:42:23;98314.45;;;2.43;100.00
23899;BME280;20544;50.018;20.010;2022-12-07T01:45:43;98324.92;;;2.43;100.00
23899;BME280;20544;50.018;20.010;2022-12-07T01:48:59;98319.39;;;2.47;100.00
23899;BME280;20544;50.018;20.010;2022-12-07T01:52:20;98308.41;;;2.43;100.00
23899;BME280;20544;50.018;20.010;2022-12-07T01:55:40;98318.58;;;2.46;100.00
23899;BME280;20544;50.018;20.010;2022-12-07T01:58:59;98315.56;;;2.41;100.00
23899;BME280;20544;50.018;20.010;2022-12-07T02:02:20;98314.88;;;2.29;100.00
23899;BME280;20544;50.018;20.010;2022-12-07T02:05:40;98310.34;;;2.31;100.00
23899;BME280;20544;50.018;20.010;2022-12-07T02:08:56;98308.44;;;2.23;100.00
23899;BME280;20544;50.018;20.010;2022-12-07T02:12:12;98303.45;;;2.30;100.00
23899;BME280;20544;50.018;20.010;2022-12-07T02:15:34;98301.25;;;2.25;100.00
23899;BME280;20544;50.018;20.010;2022-12-07T02:18:58;98297.83;;;2.15;100.00
23899;BME280;20544;50.018;20.010;2022-12-07T02:22:30;98295.36;;;2.14;100.00
23899;BME280;20544;50.018;20.010;2022-12-07T02:26:34;98302.91;;;2.17;100.00
23899;BME280;20544;50.018;20.010;2022-12-07T02:30:04;98306.64;;;2.14;100.00
23899;BME280;20544;50.018;20.010;2022-12-07T02:33:21;98305.53;;;2.17;100.00
23899;BME280;20544;50.018;20.010;2022-12-07T02:36:40;98301.95;;;2.18;100.00
23899;BME280;20544;50.018;20.010;2022-12-07T02:40:04;98304.86;;;2.24;100.00
23899;BME280;20544;50.018;20.010;2022-12-07T02:43:23;98299.33;;;2.28;100.00
23899;BME280;20544;50.018;20.010;2022-12-07T02:46:44;98294.80;;;2.20;100.00
23899;BME280;20544;50.018;20.010;2022-12-07T02:50:05;98301.25;;;2.25;100.00
23899;BME280;20544;50.018;20.010;2022-12-07T02:53:37;98300.73;;;2.22;100.00
23899;BME280;20544;50.018;20.010;2022-12-07T02:56:59;98296.56;;;2.29;100.00
23899;BME280;20544;50.018;20.010;2022-12-07T03:00:18;98298.77;;;2.34;100.00
23899;BME280;20544;50.018;20.010;2022-12-07T03:03:37;98295.19;;;2.35;100.00
23899;BME280;20544;50.018;20.010;2022-12-07T03:06:53;98281.72;;;2.20;100.00
23899;BME280;20544;50.018;20.010;2022-12-07T03:10:16;98287.51;;;2.14;100.00
23899;BME280;20544;50.018;20.010;2022-12-07T03:13:39;98283.23;;;2.13;100.00
23899;BME280;20544;50.018;20.010;2022-12-07T03:16:59;98283.94;;;2.05;100.00
23899;BME280;20544;50.018;20.010;2022-12-07T03:20:19;98278.70;;;2.05;100.00
23899;BME280;20544;50.018;20.010;2022-12-07T03:23:37;98279.67;;;2.04;100.00
23899;BME280;20544;50.018;20.010;2022-12-07T03:26:58;98283.80;;;2.06;100.00
23899;BME280;20544;50.018;20.010;2022-12-07T03:30:19;98282.54;;;2.10;100.00
23899;BME280;20544;50.018;20.010;2022-12-07T03:33:40;98278.45;;;1.98;100.00
23899;BME280;20544;50.018;20.010;2022-12-07T03:37:02;98272.52;;;1.96;100.00
23899;BME280;20544;50.018;20.010;2022-12-07T03:40:21;98266.34;;;1.87;100.00
23899;BME280;20544;50.018;20.010;2022-12-07T03:43:40;98267.56;;;1.83;100.00
23899;BME280;20544;50.018;20.010;2022-12-07T03:47:01;98263.87;;;1.76;100.00
23899;BME280;20544;50.018;20.010;2022-12-07T03:50:21;98267.15;;;1.88;100.00
23899;BME280;20544;50.018;20.010;2022-12-07T03:53:43;98266.48;;;1.76;100.00
23899;BME280;20544;50.018;20.010;2022-12-07T03:57:03;98259.30;;;1.78;100.00
23899;BME280;20544;50.018;20.010;2022-12-07T04:00:21;98253.96;;;1.80;100.00
23899;BME280;20544;50.018;20.010;2022-12-07T04:03:37;98256.14;;;1.74;100.00
23899;BME280;20544;50.018;20.010;2022-12-07T04:06:53;98244.45;;;1.78;100.00
23899;BME280;20544;50.018;20.010;2022-12-07T04:10:11;98248.84;;;1.78;100.00
23899;BME280;20544;50.018;20.010;2022-12-07T04:13:27;98251.75;;;1.75;100.00
23899;BME280;20544;50.018;20.010;2022-12-07T04:16:45;98250.64;;;1.77;100.00
23899;BME280;20544;50.018;20.010;2022-12-07T04:20:02;98254.22;;;1.76;100.00
23899;BME280;20544;50.018;20.010;2022-12-07T04:23:20;98243.50;;;1.80;100.00
23899;BME280;20544;50.018;20.010;2022-12-07T04:26:36;98249.69;;;1.78;100.00
23899;BME280;20544;50.018;20.010;2022-12-07T04:29:53;98245.82;;;1.83;100.00
23899;BME280;20544;50.018;20.010;2022-12-07T04:33:10;98242.25;;;1.84;100.00
23899;BME280;20544;50.018;20.010;2022-12-07T04:36:26;98246.23;;;1.88;100.00
23899;BME280;20544;50.018;20.010;2022-12-07T04:39:43;98247.19;;;1.87;100.00
23899;BME280;20544;50.018;20.010;2022-12-07T04:43:01;98238.93;;;1.91;100.00
23899;BME280;20544;50.018;20.010;2022-12-07T04:46:17;98243.75;;;1.96;100.00
23899;BME280;20544;50.018;20.010;2022-12-07T04:49:36;98240.98;;;1.98;100.00
23899;BME280;20544;50.018;20.010;2022-12-07T04:52:52;98237.56;;;1.97;100.00
23899;BME280;20544;50.018;20.010;2022-12-07T04:56:08;98233.84;;;2.00;100.00
23899;BME280;20544;50.018;20.010;2022-12-07T04:59:25;98240.02;;;2.08;100.00
23899;BME280;20544;50.018;20.010;2022-12-07T05:02:41;98242.06;;;2.15;100.00
23899;BME280;20544;50.018;20.010;2022-12-07T05:05:57;98244.23;;;2.19;100.00
23899;BME280;20544;50.018;20.010;2022-12-07T05:09:15;98236.94;;;2.23;100.00
23899;BME280;20544;50.018;20.010;2022-12-07T05:12:32;98241.50;;;2.21;100.00
23899;BME280;20544;50.018;20.010;2022-12-07T05:15:48;98236.53;;;2.18;100.00
23899;BME280;20544;50.018;20.010;2022-12-07T05:19:04;98234.44;;;2.31;100.00
23899;BME280;20544;50.018;20.010;2022-12-07T05:22:21;98237.84;;;2.41;100.00
23899;BME280;20544;50.018;20.010;2022-12-07T05:25:38;98233.84;;;2.47;100.00
23899;BME280;20544;50.018;20.010;2022-12-07T05:28:56;98232.73;;;2.50;100.00
23899;BME280;20544;50.018;20.010;2022-12-07T05:32:12;98242.63;;;2.56;100.00
23899;BME280;20544;50.018;20.010;2022-12-07T05:35:30;98241.52;;;2.58;100.00
23899;BME280;20544;50.018;20.010;2022-12-07T05:38:47;98246.99;;;2.65;100.00
23899;BME280;20544;50.018;20.010;2022-12-07T05:42:03;98239.71;;;2.59;100.00
23899;BME280;20544;50.018;20.010;2022-12-07T05:45:26;98252.27;;;2.55;100.00
23899;BME280;20544;50.018;20.010;2022-12-07T05:48:42;98253.80;;;2.58;100.00
23899;BME280;20544;50.018;20.010;2022-12-07T05:51:58;98250.19;;;2.59;100.00
23899;BME280;20544;50.018;20.010;2022-12-07T05:55:15;98262.89;;;2.54;100.00
23899;BME280;20544;50.018;20.010;2022-12-07T05:58:31;98257.80;;;2.52;100.00
23899;BME280;20544;50.018;20.010;2022-12-07T06:02:03;98255.03;;;2.54;100.00
23899;BME280;20544;50.018;20.010;2022-12-07T06:05:21;98256.98;;;2.52;100.00
23899;BME280;20544;50.018;20.010;2022-12-07T06:08:37;98258.77;;;2.51;100.00
23899;BME280;20544;50.018;20.010;2022-12-07T06:11:56;98264.15;;;2.50;100.00
23899;BME280;20544;50.018;20.010;2022-12-07T06:15:26;98263.30;;;2.49;100.00
23899;BME280;20544;50.018;20.010;2022-12-07T06:18:46;98264.17;;;2.40;100.00
23899;BME280;20544;50.018;20.010;2022-12-07T06:22:02;98268.69;;;2.48;100.00
23899;BME280;20544;50.018;20.010;2022-12-07T06:25:19;98262.37;;;2.40;100.00
23899;BME280;20544;50.018;20.010;2022-12-07T06:28:35;98265.68;;;2.42;100.00
23899;BME280;20544;50.018;20.010;2022-12-07T06:31:51;98264.61;;;2.25;100.00
23899;BME280;20544;50.018;20.010;2022-12-07T06:35:09;98260.20;;;2.36;100.00
23899;BME280;20544;50.018;20.010;2022-12-07T06:38:25;98267.77;;;2.29;100.00
23899;BME280;20544;50.018;20.010;2022-12-07T06:41:41;98259.67;;;2.22;100.00
23899;BME280;20544;50.018;20.010;2022-12-07T06:44:57;98258.41;;;2.26;100.00
23899;BME280;20544;50.018;20.010;2022-12-07T06:48:13;98271.65;;;2.25;100.00
23899;BME280;20544;50.018;20.010;2022-12-07T06:51:29;98269.03;;;2.25;100.00
23899;BME280;20544;50.018;20.010;2022-12-07T06:54:47;98273.85;;;2.30;100.00
23899;BME280;20544;50.018;20.010;2022-12-07T06:58:03;98277.30;;;2.20;100.00
23899;BME280;20544;50.018;20.010;2022-12-07T07:01:20;98284.04;;;2.23;100.00
23899;BME280;20544;50.018;20.010;2022-12-07T07:04:36;98285.70;;;2.24;100.00
23899;BME280;20544;50.018;20.010;2022-12-07T07:07:52;98286.80;;;2.21;100.00
23899;BME280;20544;50.018;20.010;2022-12-07T07:11:11;98283.08;;;2.24;100.00
23899;BME280;20544;50.018;20.010;2022-12-07T07:14:27;98283.08;;;2.24;100.00
23899;BME280;20544;50.018;20.010;2022-12-07T07:17:43;98285.43;;;2.27;100.00
23899;BME280;20544;50.018;20.010;2022-12-07T07:20:59;98282.66;;;2.29;100.00
23899;BME280;20544;50.018;20.010;2022-12-07T07:24:16;98291.77;;;2.24;100.00
23899;BME280;20544;50.018;20.010;2022-12-07T07:27:32;98286.66;;;2.23;100.00
23899;BME280;20544;50.018;20.010;2022-12-07T07:30:48;98280.31;;;2.25;100.00
23899;BME280;20544;50.018;20.010;2022-12-07T07:34:05;98289.98;;;2.15;100.00
23899;BME280;20544;50.018;20.010;2022-12-07T07:37:24;98285.55;;;2.25;100.00
23899;BME280;20544;50.018;20.010;2022-12-07T07:40:41;98293.39;;;2.25;100.00
23899;BME280;20544;50.018;20.010;2022-12-07T07:43:57;98285.55;;;2.25;100.00
23899;BME280;20544;50.018;20.010;2022-12-07T07:47:13;98287.20;;;2.26;100.00
23899;BME280;20544;50.018;20.010;2022-12-07T07:50:30;98283.64;;;2.18;100.00
23899;BME280;20544;50.018;20.010;2022-12-07T07:53:46;98288.06;;;2.17;100.00
23899;BME280;20544;50.018;20.010;2022-12-07T07:57:03;98292.59;;;2.15;100.00
23899;BME280;20544;50.018;20.010;2022-12-07T08:00:20;98294.80;;;2.20;100.00
23899;BME280;20544;50.018;20.010;2022-12-07T08:03:37;98297.13;;;2.23;100.00
23899;BME280;20544;50.018;20.010;2022-12-07T08:06:53;98300.44;;;2.25;100.00
23899;BME280;20544;50.018;20.010;2022-12-07T08:10:12;98291.63;;;2.26;100.00
23899;BME280;20544;50.018;20.010;2022-12-07T08:13:28;98310.64;;;2.28;100.00
23899;BME280;20544;50.018;20.010;2022-12-07T08:16:45;98316.95;;;2.25;100.00
23899;BME280;20544;50.018;20.010;2022-12-07T08:20:03;98313.26;;;2.28;100.00
23899;BME280;20544;50.018;20.010;2022-12-07T08:23:21;98310.64;;;2.28;100.00
23899;BME280;20544;50.018;20.010;2022-12-07T08:26:39;98320.81;;;2.31;100.00
23899;BME280;20544;50.018;20.010;2022-12-07T08:29:59;98317.90;;;2.34;100.00
23899;BME280;20544;50.018;20.010;2022-12-07T08:33:16;98324.94;;;2.34;100.00
23899;BME280;20544;50.018;20.010;2022-12-07T08:36:32;98323.28;;;2.33;100.00
23899;BME280;20544;50.018;20.010;2022-12-07T08:39:49;98327.42;;;2.25;100.00
23899;BME280;20544;50.018;20.010;2022-12-07T08:43:06;98323.03;;;2.16;100.00
23899;BME280;20544;50.018;20.010;2022-12-07T08:46:25;98323.17;;;2.24;100.00
23899;BME280;20544;50.018;20.010;2022-12-07T08:49:48;98320.56;;;2.24;100.00
23899;BME280;20544;50.018;20.010;2022-12-07T08:53:06;98329.23;;;2.15;100.00
23899;BME280;20544;50.018;20.010;2022-12-07T08:56:23;98333.50;;;2.16;100.00
23899;BME280;20544;50.018;20.010;2022-12-07T08:59:40;98328.27;;;2.16;100.00
23899;BME280;20544;50.018;20.010;2022-12-07T09:02:56;98343.42;;;2.13;100.00
23899;BME280;20544;50.018;20.010;2022-12-07T09:06:12;98337.48;;;2.20;100.00
23899;BME280;20544;50.018;20.010;2022-12-07T09:09:29;98340.50;;;2.25;100.00
23899;BME280;20544;50.018;20.010;2022-12-07T09:12:45;98338.98;;;2.33;100.00
23899;BME280;20544;50.018;20.010;2022-12-07T09:16:02;98342.70;;;2.40;100.00
23899;BME280;20544;50.018;20.010;2022-12-07T09:19:19;98339.52;;;2.46;100.00
23899;BME280;20544;50.018;20.010;2022-12-07T09:22:36;98339.78;;;2.53;100.00
23899;BME280;20544;50.018;20.010;2022-12-07T09:25:53;98328.47;;;2.62;100.00
23899;BME280;20544;50.018;20.010;2022-12-07T09:29:13;98329.17;;;2.64;100.00
23899;BME280;20544;50.018;20.010;2022-12-07T09:32:29;98326.49;;;2.74;100.00
23899;BME280;20544;50.018;20.010;2022-12-07T09:35:47;98321.25;;;2.74;100.00
23899;BME280;20544;50.018;20.010;2022-12-07T09:39:03;98317.95;;;2.82;100.00
23899;BME280;20544;50.018;20.010;2022-12-07T09:42:28;98324.12;;;2.90;100.00
23899;BME280;20544;50.018;20.010;2022-12-07T09:45:49;98316.19;;;3.00;100.00
23899;BME280;20544;50.018;20.010;2022-12-07T09:49:11;98328.36;;;2.91;100.00
23899;BME280;20544;50.018;20.010;2022-12-07T09:52:29;98325.34;;;2.86;100.00
23899;BME280;20544;50.018;20.010;2022-12-07T09:55:46;98317.48;;;2.86;100.00
23899;BME280;20544;50.018;20.010;2022-12-07T09:59:04;98319.14;;;2.87;100.00
23899;BME280;20544;50.018;20.010;2022-12-07T10:02:32;98320.80;;;2.88;100.00
23899;BME280;20544;50.018;20.010;2022-12-07T10:05:53;98319.53;;;2.93;100.00
23899;BME280;20544;50.018;20.010;2022-12-07T10:09:13;98313.75;;;2.89;100.00
23899;BME280;20544;50.018;20.010;2022-12-07T10:12:30;98307.55;;;2.90;100.00
23899;BME280;20544;50.018;20.010;2022-12-07T10:15:50;98308.67;;;2.87;100.00
23899;BME280;20544;50.018;20.010;2022-12-07T10:19:25;98302.31;;;2.90;100.00
23899;BME280;20544;50.018;20.010;2022-12-07T10:26:31;98293.67;;;2.80;100.00
23899;BME280;20544;50.018;20.010;2022-12-07T10:29:52;98301.23;;;2.83;100.00
23899;BME280;20544;50.018;20.010;2022-12-07T10:33:16;98294.03;;;2.95;100.00
23899;BME280;20544;50.018;20.010;2022-12-07T10:36:47;98282.86;;;2.93;100.00
23899;BME280;20544;50.018;20.010;2022-12-07T10:40:10;98291.64;;;3.01;100.00
23899;BME280;20544;50.018;20.010;2022-12-07T10:43:31;98286.13;;;3.04;100.00
23899;BME280;20544;50.018;20.010;2022-12-07T10:47:03;98275.64;;;3.04;100.00
23899;BME280;20544;50.018;20.010;2022-12-07T10:54:16;98275.53;;;2.96;100.00
23899;BME280;20544;50.018;20.010;2022-12-07T10:57:42;98262.11;;;3.09;100.00
23899;BME280;20544;50.018;20.010;2022-12-07T11:01:10;98266.61;;;3.17;100.00
23899;BME280;20544;50.018;20.010;2022-12-07T11:04:35;98270.80;;;3.28;100.00
23899;BME280;20544;50.018;20.010;2022-12-07T11:08:00;98264.16;;;3.33;100.00
23899;BME280;20544;50.018;20.010;2022-12-07T11:11:23;98255.61;;;3.31;100.00
23899;BME280;20544;50.018;20.010;2022-12-07T11:14:44;98260.41;;;3.36;100.00
23899;BME280;20544;50.018;20.010;2022-12-07T11:18:06;98264.69;;;3.37;100.00
23899;BME280;20544;50.018;20.010;2022-12-07T11:21:29;98263.56;;;3.39;100.00
23899;BME280;20544;50.018;20.010;2022-12-07T11:24:56;98260.35;;;3.46;100.00
23899;BME280;20544;50.018;20.010;2022-12-07T11:28:18;98252.33;;;3.47;100.00
23899;BME280;20544;50.018;20.010;2022-12-07T11:31:45;98256.45;;;3.50;100.00
23899;BME280;20544;50.018;20.010;2022-12-07T11:35:11;98256.38;;;3.60;100.00
23899;BME280;20544;50.018;20.010;2022-12-07T11:38:33;98250.33;;;3.59;100.00
23899;BME280;20544;50.018;20.010;2022-12-07T11:41:55;98251.50;;;3.65;100.00
23899;BME280;20544;50.018;20.010;2022-12-07T11:45:19;98247.47;;;3.70;100.00
23899;BME280;20544;50.018;20.010;2022-12-07T11:48:40;98245.90;;;3.78;100.00
23899;BME280;20544;50.018;20.010;2022-12-07T11:51:59;98250.98;;;3.79;100.00
23899;BME280;20544;50.018;20.010;2022-12-07T11:55:21;98245.50;;;3.72;100.00
23899;BME280;20544;50.018;20.010;2022-12-07T11:58:49;98245.81;;;3.69;100.00
23899;BME280;20544;50.018;20.010;2022-12-07T12:02:14;98246.05;;;3.58;100.00
23899;BME280;20544;50.018;20.010;2022-12-07T12:05:33;98244.77;;;3.62;100.00
23899;BME280;20544;50.018;20.010;2022-12-07T12:08:53;98239.16;;;3.57;100.00
23899;BME280;20544;50.018;20.010;2022-12-07T12:12:33;98244.84;;;3.52;100.00
23899;BME280;20544;50.018;20.010;2022-12-07T12:19:42;98229.03;;;3.62;100.00
23899;BME280;20544;50.018;20.010;2022-12-07T12:22:58;98229.88;;;3.63;100.00
23899;BME280;20544;50.018;20.010;2022-12-07T12:26:20;98223.34;;;3.67;100.00
23899;BME280;20544;50.018;20.010;2022-12-07T12:29:38;98221.77;;;3.74;100.00
23899;BME280;20544;50.018;20.010;2022-12-07T12:33:02;98217.65;;;3.71;100.00
23899;BME280;20544;50.018;20.010;2022-12-07T12:36:25;98220.56;;;3.68;100.00
23899;BME280;20544;50.018;20.010;2022-12-07T12:39:52;98214.18;;;3.71;100.00
23899;BME280;20544;50.018;20.010;2022-12-07T12:43:49;98221.08;;;3.72;100.00
23899;BME280;20544;50.018;20.010;2022-12-07T12:47:37;98213.58;;;3.77;100.00
23899;BME280;20544;50.018;20.010;2022-12-07T12:50:47;98211.92;;;3.76;100.00
23899;BME280;20544;50.018;20.010;2022-12-07T12:54:10;98221.29;;;3.79;100.00
23899;BME280;20544;50.018;20.010;2022-12-07T12:57:31;98218.90;;;3.85;100.00
23899;BME280;20544;50.018;20.010;2022-12-07T13:08:03;98226.41;;;3.62;100.00
23899;BME280;20544;50.018;20.010;2022-12-07T13:11:29;98226.48;;;3.70;100.00
23899;BME280;20544;50.018;20.010;2022-12-07T13:14:57;98227.74;;;3.66;100.00
23899;BME280;20544;50.018;20.010;2022-12-07T13:18:34;98230.89;;;3.70;100.00
23899;BME280;20544;50.018;20.010;2022-12-07T13:21:50;98227.14;;;3.72;100.00
23899;BME280;20544;50.018;20.010;2022-12-07T13:25:10;98214.50;;;3.68;100.00
23899;BME280;20544;50.018;20.010;2022-12-07T13:28:35;98214.70;;;3.75;100.00
23899;BME280;20544;50.018;20.010;2022-12-07T13:31:53;98223.09;;;3.78;100.00
23899;BME280;20544;50.018;20.010;2022-12-07T13:35:35;98223.09;;;3.78;100.00
23899;BME280;20544;50.018;20.010;2022-12-07T13:39:00;98222.66;;;3.83;100.00
23899;BME280;20544;50.018;20.010;2022-12-07T13:42:32;98225.11;;;3.84;100.00
23899;BME280;20544;50.018;20.010;2022-12-07T13:45:57;98236.53;;;3.75;100.00
23899;BME280;20544;50.018;20.010;2022-12-07T13:49:23;98243.41;;;3.76;100.00
23899;BME280;20544;50.018;20.010;2022-12-07T13:52:44;98246.02;;;3.76;100.00
23899;BME280;20544;50.018;20.010;2022-12-07T13:56:01;98248.13;;;3.72;100.00
23899;BME280;20544;50.018;20.010;2022-12-07T13:59:19;98245.13;;;3.67;100.00
23899;BME280;20544;50.018;20.010;2022-12-07T14:02:55;98244.77;;;3.62;100.00
23899;BME280;20544;50.018;20.010;2022-12-07T14:06:22;98246.05;;;3.58;100.00
23899;BME280;20544;50.018;20.010;2022-12-07T14:09:40;98252.17;;;3.49;100.00
23899;BME280;20544;50.018;20.010;2022-12-07T14:13:00;98247.93;;;3.48;100.00
23899;BME280;20544;50.018;20.010;2022-12-07T14:16:28;98246.88;;;3.40;100.00
23899;BME280;20544;50.018;20.010;2022-12-07T14:19:56;98254.42;;;3.44;100.00
23899;BME280;20544;50.018;20.010;2022-12-07T14:23:29;98250.30;;;3.41;100.00
23899;BME280;20544;50.018;20.010;2022-12-07T14:26:45;98254.89;;;3.39;100.00
23899;BME280;20544;50.018;20.010;2022-12-07T14:30:03;98260.41;;;3.36;100.00
23899;BME280;20544;50.018;20.010;2022-12-07T14:33:30;98263.25;;;3.24;100.00
23899;BME280;20544;50.018;20.010;2022-12-07T14:36:47;98257.63;;;3.19;100.00
23899;BME280;20544;50.018;20.010;2022-12-07T14:40:04;98260.41;;;3.18;100.00
23899;BME280;20544;50.018;20.010;2022-12-07T14:43:23;98253.05;;;3.21;100.00
23899;BME280;20544;50.018;20.010;2022-12-07T14:46:39;98252.28;;;3.11;100.00
23899;BME280;20544;50.018;20.010;2022-12-07T14:49:56;98258.65;;;3.08;100.00
23899;BME280;20544;50.018;20.010;2022-12-07T14:53:16;98255.65;;;3.03;100.00
23899;BME280;20544;50.018;20.010;2022-12-07T14:56:34;98259.39;;;3.01;100.00
23899;BME280;20544;50.018;20.010;2022-12-07T14:59:52;98254.42;;;2.98;100.00
23899;BME280;20544;50.018;20.010;2022-12-07T15:03:09;98256.08;;;2.99;100.00
23899;BME280;20544;50.018;20.010;2022-12-07T15:06:26;98246.87;;;2.95;100.00
23899;BME280;20544;50.018;20.010;2022-12-07T15:09:42;98249.48;;;2.95;100.00
23899;BME280;20544;50.018;20.010;2022-12-07T15:12:59;98252.27;;;2.93;100.00
23899;BME280;20544;50.018;20.010;2022-12-07T15:16:26;98253.08;;;2.94;100.00
23899;BME280;20544;50.018;20.010;2022-12-07T15:19:44;98254.88;;;2.93;100.00
23899;BME280;20544;50.018;20.010;2022-12-07T15:23:00;98258.63;;;2.90;100.00
23899;BME280;20544;50.018;20.010;2022-12-07T15:26:23;98255.00;;;2.91;100.00
23899;BME280;20544;50.018;20.010;2022-12-07T15:29:45;98259.28;;;2.93;100.00
23899;BME280;20544;50.018;20.010;2022-12-07T15:33:02;98260.55;;;2.88;100.00
23899;BME280;20544;50.018;20.010;2022-12-07T15:36:21;98266.60;;;2.89;100.00
23899;BME280;20544;50.018;20.010;2022-12-07T15:39:47;98268.98;;;2.82;100.00
23899;BME280;20544;50.018;20.010;2022-12-07T15:43:03;98272.57;;;2.81;100.00
23899;BME280;20544;50.018;20.010;2022-12-07T15:46:22;98270.80;;;2.82;100.00
23899;BME280;20544;50.018;20.010;2022-12-07T15:49:41;98280.28;;;2.83;100.00
23899;BME280;20544;50.018;20.010;2022-12-07T15:52:58;98280.58;;;2.80;100.00
23899;BME280;20544;50.018;20.010;2022-12-07T15:56:31;98288.59;;;2.78;100.00
23899;BME280;20544;50.018;20.010;2022-12-07T15:59:56;98284.85;;;2.81;100.00
23899;BME280;20544;50.018;20.010;2022-12-07T16:03:12;98291.20;;;2.78;100.00
23899;BME280;20544;50.018;20.010;2022-12-07T16:06:32;98293.67;;;2.80;100.00
23899;BME280;20544;50.018;20.010;2022-12-07T16:09:50;98295.18;;;2.82;100.00
23899;BME280;20544;50.018;20.010;2022-12-07T16:13:06;98298.61;;;2.83;100.00
23899;BME280;20544;50.018;20.010;2022-12-07T16:16:23;98287.02;;;2.85;100.00
23899;BME280;20544;50.018;20.010;2022-12-07T16:19:40;98284.40;;;2.85;100.00
23899;BME280;20544;50.018;20.010;2022-12-07T16:22:57;98292.80;;;2.89;100.00
23899;BME280;20544;50.018;20.010;2022-12-07T16:26:15;98296.11;;;2.91;100.00
23899;BME280;20544;50.018;20.010;2022-12-07T16:29:33;98294.18;;;2.93;100.00
23899;BME280;20544;50.018;20.010;2022-12-07T16:32:49;98299.42;;;2.93;100.00
23899;BME280;20544;50.018;20.010;2022-12-07T16:36:10;98288.79;;;2.95;100.00
23899;BME280;20544;50.018;20.010;2022-12-07T16:39:30;98293.72;;;2.98;100.00
23899;BME280;20544;50.018;20.010;2022-12-07T16:42:48;98295.77;;;3.04;100.00
23899;BME280;20544;50.018;20.010;2022-12-07T16:46:05;98300.19;;;3.03;100.00
23899;BME280;20544;50.018;20.010;2022-12-07T16:49:22;98300.73;;;3.07;100.00
23899;BME280;20544;50.018;20.010;2022-12-07T16:52:38;98302.81;;;3.03;100.00
23899;BME280;20544;50.018;20.010;2022-12-07T16:55:58;98293.30;;;3.02;100.00
23899;BME280;20544;50.018;20.010;2022-12-07T16:59:15;98298.11;;;3.07;100.00
23899;BME280;20544;50.018;20.010;2022-12-07T17:02:35;98299.23;;;3.04;100.00
23899;BME280;20544;50.018;20.010;2022-12-07T17:05:54;98300.73;;;3.07;100.00
23899;BME280;20544;50.018;20.010;2022-12-07T17:09:11;98296.02;;;3.11;100.00
23899;BME280;20544;50.018;20.010;2022-12-07T17:12:31;98305.23;;;3.15;100.00
23899;BME280;20544;50.018;20.010;2022-12-07T17:15:57;98303.30;;;3.17;100.00
23899;BME280;20544;50.018;20.010;2022-12-07T17:19:16;98299.41;;;3.21;100.00
23899;BME280;20544;50.018;20.010;2022-12-07T17:22:33;98299.14;;;3.24;100.00
23899;BME280;20544;50.018;20.010;2022-12-07T17:25:57;98303.84;;;3.20;100.00
23899;BME280;20544;50.018;20.010;2022-12-07T17:29:13;98305.57;;;3.30;100.00
23899;BME280;20544;50.018;20.010;2022-12-07T17:32:31;98301.17;;;3.30;100.00
23899;BME280;20544;50.018;20.010;2022-12-07T17:35:49;98306.31;;;3.22;100.00
23899;BME280;20544;50.018;20.010;2022-12-07T17:39:08;98310.59;;;3.23;100.00
23899;BME280;20544;50.018;20.010;2022-12-07T17:42:27;98307.58;;;3.18;100.00